• Join FlightAware (Why Join?)
  • Login
  • US Flag 
11:17AM EDT


 

Airport Tracker/Info


-or-


 

Live Flight TrackerFlight Track Log ✈ N300BS ✈ 28-Aug-2013 ✈ KINL - KPWC

Flight Track Log - Related Links

Times and Time Zones

All times are in EDT time to prevent confusion due to time zone crossing. See the N300BS flight status page for this flight to view local times or setup timezone preferences in your user account.

Time Position Orientation Groundspeed Altitude Reporting Facility
EDT Latitude Longitude Course Direction KTS MPH feet Rate Location/Type
02:10PM 48.6861 -93.1581 234° Southwest 127 146 4,100  Level Minneapolis Center
02:11PM 48.6625 -93.2069 234° Southwest 127 146 3,800 -60 Descending Minneapolis Center
02:13PM 48.6333 -93.2253 203° Southwest  Level Estimated
02:20PM 48.5268 -93.2924 203° Southwest  Level Estimated
02:21PM 48.5116 -93.3019 203° Southwest  Level Estimated
02:22PM 48.4964 -93.3114 203° Southwest  Level Estimated
02:23PM 48.4812 -93.3210 203° Southwest  Level Estimated
02:24PM 48.4659 -93.3305 203° Southwest  Level Estimated
02:25PM 48.4507 -93.3400 203° Southwest  Level Estimated
02:26PM 48.4355 -93.3496 203° Southwest  Level Estimated
02:27PM 48.4203 -93.3591 203° Southwest  Level Estimated
02:28PM 48.4050 -93.3686 203° Southwest  Level Estimated
02:29PM 48.3898 -93.3781 203° Southwest  Level Estimated
02:30PM 48.3746 -93.3876 203° Southwest  Level Estimated
02:31PM 48.3593 -93.3971 202° Southwest  Level Estimated
02:32PM 48.3441 -93.4066 202° Southwest  Level Estimated
02:33PM 48.3289 -93.4161 202° Southwest  Level Estimated
02:34PM 48.3137 -93.4255 202° Southwest  Level Estimated
02:35PM 48.2984 -93.4350 202° Southwest  Level Estimated
02:36PM 48.2832 -93.4445 202° Southwest  Level Estimated
02:37PM 48.2680 -93.4539 202° Southwest  Level Estimated
02:38PM 48.2527 -93.4634 202° Southwest  Level Estimated
02:39PM 48.2375 -93.4728 202° Southwest  Level Estimated
02:40PM 48.2223 -93.4823 202° Southwest  Level Estimated
02:41PM 48.2070 -93.4917 202° Southwest  Level Estimated
02:42PM 48.1918 -93.5011 202° Southwest  Level Estimated
02:43PM 48.1766 -93.5106 202° Southwest  Level Estimated
02:44PM 48.1613 -93.5200 202° Southwest  Level Estimated
02:45PM 48.1461 -93.5294 202° Southwest  Level Estimated
02:46PM 48.1308 -93.5388 202° Southwest  Level Estimated
02:47PM 48.1156 -93.5482 202° Southwest  Level Estimated
02:48PM 48.1003 -93.5576 202° Southwest  Level Estimated
02:49PM 48.0851 -93.5670 202° Southwest  Level Estimated
02:49PM 48.4458 -93.4919 205° Southwest 95 109 3,900  Level Minneapolis Center
02:50PM 48.0699 -93.5764 202° Southwest  Level Estimated
02:50PM 48.4219 -93.5156 213° Southwest 98 113 4,000  Level Minneapolis Center
02:51PM 48.0546 -93.5857 202° Southwest  Level Estimated
02:51PM 48.3947 -93.5381 209° Southwest 103 119 4,000  Level Minneapolis Center
02:52PM 48.0394 -93.5951 202° Southwest  Level Estimated
02:52PM 48.3700 -93.5558 206° Southwest 111 128 4,000  Level Minneapolis Center
02:53PM 48.0241 -93.6045 202° Southwest  Level Estimated
02:53PM 48.3292 -93.5769 199° South 114 131 4,000  Level Minneapolis Center
02:54PM 48.2997 -93.5922 199° South 113 130 4,000  Level Minneapolis Center
02:55PM 48.2703 -93.6064 198° South 112 129 4,000  Level Minneapolis Center
02:56PM 48.2414 -93.6222 200° South 112 129 4,000  Level Minneapolis Center
02:58PM 48.2058 -93.6403 199° South 112 129 4,000  Level Minneapolis Center
02:59PM 48.1775 -93.6542 198° South 110 127 4,000  Level Minneapolis Center
03:00PM 48.1428 -93.6717 199° South 110 127 4,000  Level Minneapolis Center
03:01PM 48.1147 -93.6878 201° Southwest 110 127 4,000  Level Minneapolis Center
03:02PM 48.0783 -93.7047 197° South 111 128 4,000  Level Minneapolis Center
03:03PM 48.0522 -93.7186 200° South 108 124 4,000  Level Minneapolis Center
03:04PM 48.0269 -93.7328 201° Southwest 103 119 4,000  Level Minneapolis Center
03:05PM 47.9950 -93.7469 197° South 100 115 4,000  Level Minneapolis Center
03:06PM 47.9625 -93.7642 200° South 102 117 4,000  Level Minneapolis Center
03:07PM 47.9347 -93.7789 200° South 103 119 4,000  Level Minneapolis Center
03:08PM 47.9069 -93.7933 199° South 105 121 4,000  Level Minneapolis Center
03:09PM 47.8786 -93.8072 198° South 106 122 4,000  Level Minneapolis Center
03:11PM 47.8453 -93.8236 198° South 106 122 4,000  Level Minneapolis Center
03:12PM 47.8128 -93.8403 199° South 105 121 4,000  Level Minneapolis Center
03:13PM 47.7853 -93.8547 199° South 105 121 4,000  Level Minneapolis Center
03:14PM 47.7589 -93.8683 199° South 103 119 4,000  Level Minneapolis Center
03:15PM 47.7333 -93.8814 199° South 101 116 4,000  Level Minneapolis Center
03:16PM 47.7017 -93.8961 197° South 99 114 4,000  Level Minneapolis Center
03:17PM 47.6764 -93.9092 199° South 98 113 4,000  Level Minneapolis Center
03:18PM 47.6519 -93.9219 199° South 96 110 4,000  Level Minneapolis Center
03:19PM 47.6272 -93.9344 199° South 95 109 4,000  Level Minneapolis Center
03:20PM 47.6011 -93.9472 198° South 96 110 4,000  Level Minneapolis Center
03:21PM 47.5747 -93.9608 199° South 98 113 4,000  Level Minneapolis Center
03:22PM 47.5431 -93.9772 199° South 100 115 4,000  Level Minneapolis Center
03:23PM 47.5219 -93.9875 198° South 100 115 4,000  Level Minneapolis Center
03:24PM 47.4894 -94.0039 199° South 101 116 4,000  Level Minneapolis Center
03:25PM 47.4642 -94.0156 197° South 100 115 4,000  Level Minneapolis Center
03:26PM 47.4381 -94.0297 200° South 99 114 4,000  Level Minneapolis Center
03:27PM 47.4053 -94.0458 198° South 101 116 4,000  Level Minneapolis Center
03:28PM 47.3833 -94.0561 198° South 102 117 4,000  Level Minneapolis Center
03:29PM 47.3506 -94.0722 198° South 103 119 4,000  Level Minneapolis Center
03:30PM 47.3292 -94.0844 201° Southwest 104 120 4,000  Level Minneapolis Center
03:31PM 47.2981 -94.0994 198° South 101 116 4,000  Level Minneapolis Center
03:32PM 47.2714 -94.1117 197° South 100 115 4,000  Level Minneapolis Center
03:33PM 47.2389 -94.1289 200° South 102 117 4,000  Level Minneapolis Center
03:34PM 47.2128 -94.1411 198° South 101 116 4,000  Level Minneapolis Center
03:36PM 47.1867 -94.1550 200° South 100 115 4,000  Level Minneapolis Center
03:37PM 47.1550 -94.1703 198° South 100 115 4,000  Level Minneapolis Center
03:38PM 47.1289 -94.1831 198° South 100 115 4,000  Level Minneapolis Center
03:39PM 47.0972 -94.1986 198° South 99 114 4,000  Level Minneapolis Center
03:40PM 47.0711 -94.2117 199° South 100 115 4,000  Level Minneapolis Center
03:42PM 47.0241 -94.2321 196° South  Level FlightAware Approximate
03:49PM 46.8268 -94.3200 199° South  Level FlightAware Approximate
03:50PM 46.7990 -94.3339 199° South  Level FlightAware Approximate
03:51PM 46.7711 -94.3478 199° South  Level FlightAware Approximate
03:52PM 46.7433 -94.3617 199° South  Level FlightAware Approximate
03:53PM 46.7167 -94.3667 180° South  Level FlightAware Approximate
03:54PM 46.7248 -94.3817 180° South  Level Estimated
03:55PM 46.7248 -94.3817 180° South  Level Estimated
03:56PM 46.7248 -94.3817 180° South  Level Estimated
03:57PM 46.7248 -94.3817 180° South  Level Estimated
03:58PM 46.7248 -94.3817 180° South  Level Estimated
03:59PM 46.7248 -94.3817 180° South  Level Estimated
04:00PM 46.7248 -94.3817 180° South  Level Estimated
04:01PM 46.7248 -94.3817 180° South  Level Estimated
04:02PM 46.7248 -94.3817 180° South  Level Estimated
04:03PM 46.7248 -94.3817 180° South  Level Estimated
04:04PM 46.7248 -94.3817 180° South  Level Estimated
04:05PM 46.7248 -94.3817 180° South  Level Estimated
04:06PM 46.7248 -94.3817 180° South  Level Estimated
04:07PM 46.7248 -94.3817 180° South  Level Estimated
04:08PM 46.7248 -94.3817 180° South  Level Estimated
04:09PM 46.7248 -94.3817 180° South  Level Estimated
04:10PM 46.7248 -94.3817 180° South  Level Estimated